sensor_id;sensor_type;location;lat;lon;timestamp;temperature;humidity
14252;DHT22;7210;51.502;10.722;2023-04-16T00:01:11;8.80;1.00
14252;DHT22;7210;51.502;10.722;2023-04-16T00:03:38;8.70;1.00
14252;DHT22;7210;51.502;10.722;2023-04-16T00:06:07;8.80;1.00
14252;DHT22;7210;51.502;10.722;2023-04-16T00:08:36;8.70;1.00
14252;DHT22;7210;51.502;10.722;2023-04-16T00:11:04;8.70;1.00
14252;DHT22;7210;51.502;10.722;2023-04-16T00:13:32;8.80;1.00
14252;DHT22;7210;51.502;10.722;2023-04-16T00:15:59;8.70;1.00
14252;DHT22;7210;51.502;10.722;2023-04-16T00:18:26;8.70;1.00
14252;DHT22;7210;51.502;10.722;2023-04-16T00:20:53;8.70;1.00
14252;DHT22;7210;51.502;10.722;2023-04-16T00:23:22;8.70;1.00
14252;DHT22;7210;51.502;10.722;2023-04-16T00:25:50;8.70;1.00
14252;DHT22;7210;51.502;10.722;2023-04-16T00:28:18;8.60;1.00
14252;DHT22;7210;51.502;10.722;2023-04-16T00:30:45;8.60;1.00
14252;DHT22;7210;51.502;10.722;2023-04-16T00:33:12;8.60;1.00
14252;DHT22;7210;51.502;10.722;2023-04-16T00:35:40;8.60;1.00
14252;DHT22;7210;51.502;10.722;2023-04-16T00:38:07;8.60;1.00
14252;DHT22;7210;51.502;10.722;2023-04-16T00:40:36;8.50;1.00
14252;DHT22;7210;51.502;10.722;2023-04-16T00:43:03;8.50;1.00
14252;DHT22;7210;51.502;10.722;2023-04-16T00:45:31;8.50;1.00
14252;DHT22;7210;51.502;10.722;2023-04-16T00:47:58;8.50;1.00
14252;DHT22;7210;51.502;10.722;2023-04-16T00:50:27;8.50;1.00
14252;DHT22;7210;51.502;10.722;2023-04-16T00:52:55;8.50;1.00
14252;DHT22;7210;51.502;10.722;2023-04-16T00:55:23;8.50;1.00
14252;DHT22;7210;51.502;10.722;2023-04-16T00:57:52;8.40;1.00
14252;DHT22;7210;51.502;10.722;2023-04-16T01:00:19;8.40;1.00
14252;DHT22;7210;51.502;10.722;2023-04-16T01:02:47;8.40;1.00
14252;DHT22;7210;51.502;10.722;2023-04-16T01:05:14;8.50;1.00
14252;DHT22;7210;51.502;10.722;2023-04-16T01:07:41;8.50;1.00
14252;DHT22;7210;51.502;10.722;2023-04-16T01:10:08;8.40;1.00
14252;DHT22;7210;51.502;10.722;2023-04-16T01:12:36;8.50;1.00
14252;DHT22;7210;51.502;10.722;2023-04-16T01:15:06;8.50;1.00
14252;DHT22;7210;51.502;10.722;2023-04-16T01:17:34;8.50;1.00
14252;DHT22;7210;51.502;10.722;2023-04-16T01:20:01;8.50;1.00
14252;DHT22;7210;51.502;10.722;2023-04-16T01:22:33;8.50;1.00
14252;DHT22;7210;51.502;10.722;2023-04-16T01:25:01;8.50;1.00
14252;DHT22;7210;51.502;10.722;2023-04-16T01:27:28;8.50;1.00
14252;DHT22;7210;51.502;10.722;2023-04-16T01:29:55;8.50;1.00
14252;DHT22;7210;51.502;10.722;2023-04-16T01:32:35;8.50;1.00
14252;DHT22;7210;51.502;10.722;2023-04-16T01:35:02;8.50;1.00
14252;DHT22;7210;51.502;10.722;2023-04-16T01:37:30;8.50;1.00
14252;DHT22;7210;51.502;10.722;2023-04-16T01:39:58;8.60;1.00
14252;DHT22;7210;51.502;10.722;2023-04-16T01:42:26;8.60;1.00
14252;DHT22;7210;51.502;10.722;2023-04-16T01:44:53;8.60;1.00
14252;DHT22;7210;51.502;10.722;2023-04-16T01:47:20;8.60;1.00
14252;DHT22;7210;51.502;10.722;2023-04-16T01:49:48;8.60;1.00
14252;DHT22;7210;51.502;10.722;2023-04-16T01:52:15;8.70;1.00
14252;DHT22;7210;51.502;10.722;2023-04-16T01:54:42;8.80;1.00
14252;DHT22;7210;51.502;10.722;2023-04-16T01:57:11;8.80;1.00
14252;DHT22;7210;51.502;10.722;2023-04-16T01:59:38;8.70;1.00
14252;DHT22;7210;51.502;10.722;2023-04-16T02:02:08;8.70;1.00
14252;DHT22;7210;51.502;10.722;2023-04-16T02:04:37;8.70;7.20
14252;DHT22;7210;51.502;10.722;2023-04-16T02:07:06;8.70;13.00
14252;DHT22;7210;51.502;10.722;2023-04-16T02:09:34;8.70;17.00
14252;DHT22;7210;51.502;10.722;2023-04-16T02:12:05;8.70;24.80
14252;DHT22;7210;51.502;10.722;2023-04-16T02:14:33;8.70;26.20
14252;DHT22;7210;51.502;10.722;2023-04-16T02:17:01;8.70;26.10
14252;DHT22;7210;51.502;10.722;2023-04-16T02:19:41;8.70;24.80
14252;DHT22;7210;51.502;10.722;2023-04-16T02:22:09;8.60;24.10
14252;DHT22;7210;51.502;10.722;2023-04-16T02:24:36;8.60;20.90
14252;DHT22;7210;51.502;10.722;2023-04-16T02:27:07;8.60;19.90
14252;DHT22;7210;51.502;10.722;2023-04-16T02:29:36;8.60;18.80
14252;DHT22;7210;51.502;10.722;2023-04-16T02:32:10;8.50;15.00
14252;DHT22;7210;51.502;10.722;2023-04-16T02:34:41;8.50;26.70
14252;DHT22;7210;51.502;10.722;2023-04-16T02:37:09;8.50;5.30
14252;DHT22;7210;51.502;10.722;2023-04-16T02:39:37;8.50;1.00
14252;DHT22;7210;51.502;10.722;2023-04-16T02:42:04;8.50;1.00
14252;DHT22;7210;51.502;10.722;2023-04-16T02:44:32;8.50;1.00
14252;DHT22;7210;51.502;10.722;2023-04-16T02:47:00;8.50;2.60
14252;DHT22;7210;51.502;10.722;2023-04-16T02:49:28;8.50;4.40
14252;DHT22;7210;51.502;10.722;2023-04-16T02:51:55;8.50;2.70
14252;DHT22;7210;51.502;10.722;2023-04-16T02:54:22;8.50;1.00
14252;DHT22;7210;51.502;10.722;2023-04-16T02:56:50;8.50;5.70
14252;DHT22;7210;51.502;10.722;2023-04-16T02:59:17;8.50;2.80
14252;DHT22;7210;51.502;10.722;2023-04-16T03:01:44;8.50;3.70
14252;DHT22;7210;51.502;10.722;2023-04-16T03:04:13;8.50;5.20
14252;DHT22;7210;51.502;10.722;2023-04-16T03:06:40;8.50;7.20
14252;DHT22;7210;51.502;10.722;2023-04-16T03:09:07;8.50;7.60
14252;DHT22;7210;51.502;10.722;2023-04-16T03:11:34;8.50;13.70
14252;DHT22;7210;51.502;10.722;2023-04-16T03:14:01;8.40;9.90
14252;DHT22;7210;51.502;10.722;2023-04-16T03:16:29;8.40;16.70
14252;DHT22;7210;51.502;10.722;2023-04-16T03:18:56;8.40;1.00
14252;DHT22;7210;51.502;10.722;2023-04-16T03:21:24;8.40;1.00
14252;DHT22;7210;51.502;10.722;2023-04-16T03:23:52;8.40;1.00
14252;DHT22;7210;51.502;10.722;2023-04-16T03:26:21;8.40;1.00
14252;DHT22;7210;51.502;10.722;2023-04-16T03:28:49;8.40;2.30
14252;DHT22;7210;51.502;10.722;2023-04-16T03:31:16;8.30;1.00
14252;DHT22;7210;51.502;10.722;2023-04-16T03:33:43;8.30;1.00
14252;DHT22;7210;51.502;10.722;2023-04-16T03:36:11;8.30;1.00
14252;DHT22;7210;51.502;10.722;2023-04-16T03:38:39;8.30;1.00
14252;DHT22;7210;51.502;10.722;2023-04-16T03:41:07;8.30;1.00
14252;DHT22;7210;51.502;10.722;2023-04-16T03:43:34;8.30;1.00
14252;DHT22;7210;51.502;10.722;2023-04-16T03:46:01;8.30;1.00
14252;DHT22;7210;51.502;10.722;2023-04-16T03:48:28;8.30;1.00
14252;DHT22;7210;51.502;10.722;2023-04-16T03:50:57;8.30;1.00
14252;DHT22;7210;51.502;10.722;2023-04-16T03:53:24;8.30;1.00
14252;DHT22;7210;51.502;10.722;2023-04-16T03:55:52;8.30;1.70
14252;DHT22;7210;51.502;10.722;2023-04-16T03:58:21;8.30;1.20
14252;DHT22;7210;51.502;10.722;2023-04-16T04:00:48;8.20;1.00
14252;DHT22;7210;51.502;10.722;2023-04-16T04:03:16;8.20;1.00
14252;DHT22;7210;51.502;10.722;2023-04-16T04:05:46;8.20;1.00
14252;DHT22;7210;51.502;10.722;2023-04-16T04:08:17;8.20;1.00
14252;DHT22;7210;51.502;10.722;2023-04-16T04:10:45;8.20;1.00
14252;DHT22;7210;51.502;10.722;2023-04-16T04:13:15;8.20;1.00
14252;DHT22;7210;51.502;10.722;2023-04-16T04:15:43;8.20;1.00
14252;DHT22;7210;51.502;10.722;2023-04-16T04:18:10;8.20;1.00
14252;DHT22;7210;51.502;10.722;2023-04-16T04:20:38;8.20;1.00
14252;DHT22;7210;51.502;10.722;2023-04-16T04:23:07;8.10;1.00
14252;DHT22;7210;51.502;10.722;2023-04-16T04:25:34;8.20;1.00
14252;DHT22;7210;51.502;10.722;2023-04-16T04:28:01;8.20;1.00
14252;DHT22;7210;51.502;10.722;2023-04-16T04:30:30;8.20;1.00
14252;DHT22;7210;51.502;10.722;2023-04-16T04:32:57;8.20;1.00
14252;DHT22;7210;51.502;10.722;2023-04-16T04:35:25;8.20;1.00
14252;DHT22;7210;51.502;10.722;2023-04-16T04:37:52;8.20;3.50
14252;DHT22;7210;51.502;10.722;2023-04-16T04:40:20;8.20;3.10
14252;DHT22;7210;51.502;10.722;2023-04-16T04:42:47;8.20;6.30
14252;DHT22;7210;51.502;10.722;2023-04-16T04:45:14;8.20;4.00
14252;DHT22;7210;51.502;10.722;2023-04-16T04:47:43;8.20;4.00
14252;DHT22;7210;51.502;10.722;2023-04-16T04:50:10;8.20;6.40
14252;DHT22;7210;51.502;10.722;2023-04-16T04:52:37;8.20;8.40
14252;DHT22;7210;51.502;10.722;2023-04-16T04:55:06;8.20;4.50
14252;DHT22;7210;51.502;10.722;2023-04-16T04:57:34;8.30;11.40
14252;DHT22;7210;51.502;10.722;2023-04-16T05:00:03;8.30;18.10
14252;DHT22;7210;51.502;10.722;2023-04-16T05:02:40;8.30;25.70
14252;DHT22;7210;51.502;10.722;2023-04-16T05:05:09;8.30;19.60
14252;DHT22;7210;51.502;10.722;2023-04-16T05:07:36;8.40;22.20
14252;DHT22;7210;51.502;10.722;2023-04-16T05:10:03;8.30;24.10
14252;DHT22;7210;51.502;10.722;2023-04-16T05:12:31;8.30;19.40
14252;DHT22;7210;51.502;10.722;2023-04-16T05:14:58;8.30;13.20
14252;DHT22;7210;51.502;10.722;2023-04-16T05:17:25;8.30;3.10
14252;DHT22;7210;51.502;10.722;2023-04-16T05:19:52;8.20;1.00
14252;DHT22;7210;51.502;10.722;2023-04-16T05:22:20;8.30;1.00
14252;DHT22;7210;51.502;10.722;2023-04-16T05:24:50;8.20;1.00
14252;DHT22;7210;51.502;10.722;2023-04-16T05:27:17;8.20;1.00
14252;DHT22;7210;51.502;10.722;2023-04-16T05:29:44;8.20;1.00
14252;DHT22;7210;51.502;10.722;2023-04-16T05:32:11;8.20;1.00
14252;DHT22;7210;51.502;10.722;2023-04-16T05:34:38;8.20;1.00
14252;DHT22;7210;51.502;10.722;2023-04-16T05:37:06;8.20;1.00
14252;DHT22;7210;51.502;10.722;2023-04-16T05:39:34;8.30;1.00
14252;DHT22;7210;51.502;10.722;2023-04-16T05:42:01;8.30;1.00
14252;DHT22;7210;51.502;10.722;2023-04-16T05:44:29;8.20;1.00
14252;DHT22;7210;51.502;10.722;2023-04-16T05:46:56;8.20;3.50
14252;DHT22;7210;51.502;10.722;2023-04-16T05:49:24;8.20;19.00
14252;DHT22;7210;51.502;10.722;2023-04-16T05:51:52;8.20;9.70
14252;DHT22;7210;51.502;10.722;2023-04-16T05:54:20;8.20;30.40
14252;DHT22;7210;51.502;10.722;2023-04-16T05:56:49;8.20;51.70
14252;DHT22;7210;51.502;10.722;2023-04-16T05:59:17;8.20;58.60
14252;DHT22;7210;51.502;10.722;2023-04-16T06:01:44;8.10;58.70
14252;DHT22;7210;51.502;10.722;2023-04-16T06:04:12;8.10;57.10
14252;DHT22;7210;51.502;10.722;2023-04-16T06:06:40;8.20;50.70
14252;DHT22;7210;51.502;10.722;2023-04-16T06:09:08;8.20;48.20
14252;DHT22;7210;51.502;10.722;2023-04-16T06:11:41;8.20;58.00
14252;DHT22;7210;51.502;10.722;2023-04-16T06:14:10;8.20;56.50
14252;DHT22;7210;51.502;10.722;2023-04-16T06:16:39;8.20;50.50
14252;DHT22;7210;51.502;10.722;2023-04-16T06:19:06;8.20;41.60
14252;DHT22;7210;51.502;10.722;2023-04-16T06:21:33;8.20;30.10
14252;DHT22;7210;51.502;10.722;2023-04-16T06:24:02;8.20;24.30
14252;DHT22;7210;51.502;10.722;2023-04-16T06:26:29;8.20;14.60
14252;DHT22;7210;51.502;10.722;2023-04-16T06:28:56;8.30;12.50
14252;DHT22;7210;51.502;10.722;2023-04-16T06:31:25;8.30;6.20
14252;DHT22;7210;51.502;10.722;2023-04-16T06:33:52;8.30;7.40
14252;DHT22;7210;51.502;10.722;2023-04-16T06:36:20;8.30;4.80
14252;DHT22;7210;51.502;10.722;2023-04-16T06:38:48;8.30;1.60
14252;DHT22;7210;51.502;10.722;2023-04-16T06:41:15;8.20;1.00
14252;DHT22;7210;51.502;10.722;2023-04-16T06:43:43;8.20;1.00
14252;DHT22;7210;51.502;10.722;2023-04-16T06:46:10;8.30;1.00
14252;DHT22;7210;51.502;10.722;2023-04-16T06:48:39;8.20;1.00
14252;DHT22;7210;51.502;10.722;2023-04-16T06:51:06;8.30;1.00
14252;DHT22;7210;51.502;10.722;2023-04-16T06:53:35;8.30;1.00
14252;DHT22;7210;51.502;10.722;2023-04-16T06:56:03;8.30;1.00
14252;DHT22;7210;51.502;10.722;2023-04-16T06:58:32;8.30;1.00
14252;DHT22;7210;51.502;10.722;2023-04-16T07:00:59;8.40;1.00
14252;DHT22;7210;51.502;10.722;2023-04-16T07:03:27;8.50;1.00
14252;DHT22;7210;51.502;10.722;2023-04-16T07:05:55;8.50;1.00
14252;DHT22;7210;51.502;10.722;2023-04-16T07:08:23;8.50;1.00
14252;DHT22;7210;51.502;10.722;2023-04-16T07:10:50;8.50;7.90
14252;DHT22;7210;51.502;10.722;2023-04-16T07:13:18;8.60;17.90
14252;DHT22;7210;51.502;10.722;2023-04-16T07:15:46;8.60;33.00
14252;DHT22;7210;51.502;10.722;2023-04-16T07:18:15;8.50;37.90
14252;DHT22;7210;51.502;10.722;2023-04-16T07:20:43;8.50;36.90
14252;DHT22;7210;51.502;10.722;2023-04-16T07:23:11;8.50;39.80
14252;DHT22;7210;51.502;10.722;2023-04-16T07:25:39;8.50;39.40
14252;DHT22;7210;51.502;10.722;2023-04-16T07:28:06;8.60;49.70
14252;DHT22;7210;51.502;10.722;2023-04-16T07:30:33;8.70;53.80
14252;DHT22;7210;51.502;10.722;2023-04-16T07:33:02;8.60;61.10
14252;DHT22;7210;51.502;10.722;2023-04-16T07:35:29;8.60;66.90
14252;DHT22;7210;51.502;10.722;2023-04-16T07:37:57;8.70;64.30
14252;DHT22;7210;51.502;10.722;2023-04-16T07:40:25;8.70;76.40
14252;DHT22;7210;51.502;10.722;2023-04-16T07:42:53;8.70;88.50
14252;DHT22;7210;51.502;10.722;2023-04-16T07:45:21;8.70;98.40
14252;DHT22;7210;51.502;10.722;2023-04-16T07:47:49;8.70;95.90
14252;DHT22;7210;51.502;10.722;2023-04-16T07:50:16;8.70;99.90
14252;DHT22;7210;51.502;10.722;2023-04-16T07:52:44;8.60;98.40
14252;DHT22;7210;51.502;10.722;2023-04-16T07:55:11;8.70;99.90
14252;DHT22;7210;51.502;10.722;2023-04-16T07:57:40;8.60;99.90
14252;DHT22;7210;51.502;10.722;2023-04-16T08:00:09;8.70;95.00
14252;DHT22;7210;51.502;10.722;2023-04-16T08:02:40;8.70;99.90
14252;DHT22;7210;51.502;10.722;2023-04-16T08:05:08;8.70;99.90
14252;DHT22;7210;51.502;10.722;2023-04-16T08:07:35;8.70;99.90
14252;DHT22;7210;51.502;10.722;2023-04-16T08:10:03;8.80;99.90
14252;DHT22;7210;51.502;10.722;2023-04-16T08:12:31;8.80;99.90
14252;DHT22;7210;51.502;10.722;2023-04-16T08:15:00;8.80;99.90
14252;DHT22;7210;51.502;10.722;2023-04-16T08:17:27;8.80;99.90
14252;DHT22;7210;51.502;10.722;2023-04-16T08:19:54;8.90;99.90
14252;DHT22;7210;51.502;10.722;2023-04-16T08:22:21;8.80;99.90
14252;DHT22;7210;51.502;10.722;2023-04-16T08:24:48;8.70;99.90
14252;DHT22;7210;51.502;10.722;2023-04-16T08:27:16;8.80;99.90
14252;DHT22;7210;51.502;10.722;2023-04-16T08:29:43;8.80;99.90
14252;DHT22;7210;51.502;10.722;2023-04-16T08:32:12;8.80;99.90
14252;DHT22;7210;51.502;10.722;2023-04-16T08:34:39;8.70;99.90
14252;DHT22;7210;51.502;10.722;2023-04-16T08:37:07;8.70;99.90
14252;DHT22;7210;51.502;10.722;2023-04-16T08:39:34;8.70;99.90
14252;DHT22;7210;51.502;10.722;2023-04-16T08:42:04;8.70;99.90
14252;DHT22;7210;51.502;10.722;2023-04-16T08:44:34;8.80;99.90
14252;DHT22;7210;51.502;10.722;2023-04-16T08:47:07;8.80;99.90
14252;DHT22;7210;51.502;10.722;2023-04-16T08:49:42;8.70;99.90
14252;DHT22;7210;51.502;10.722;2023-04-16T08:52:15;8.70;99.90
14252;DHT22;7210;51.502;10.722;2023-04-16T08:54:47;8.70;99.90
14252;DHT22;7210;51.502;10.722;2023-04-16T08:57:28;8.60;99.90
14252;DHT22;7210;51.502;10.722;2023-04-16T08:59:59;8.70;99.90
14252;DHT22;7210;51.502;10.722;2023-04-16T09:02:29;8.70;99.90
14252;DHT22;7210;51.502;10.722;2023-04-16T09:04:58;8.80;99.90
14252;DHT22;7210;51.502;10.722;2023-04-16T09:07:28;8.70;99.90
14252;DHT22;7210;51.502;10.722;2023-04-16T09:09:58;8.80;99.90
14252;DHT22;7210;51.502;10.722;2023-04-16T09:12:26;8.70;99.90
14252;DHT22;7210;51.502;10.722;2023-04-16T09:14:55;8.80;99.90
14252;DHT22;7210;51.502;10.722;2023-04-16T09:17:24;8.90;99.90
14252;DHT22;7210;51.502;10.722;2023-04-16T09:19:52;9.00;99.90
14252;DHT22;7210;51.502;10.722;2023-04-16T09:22:21;9.10;99.90
14252;DHT22;7210;51.502;10.722;2023-04-16T09:24:48;9.10;99.90
14252;DHT22;7210;51.502;10.722;2023-04-16T09:27:16;9.20;99.90
14252;DHT22;7210;51.502;10.722;2023-04-16T09:29:43;9.30;99.90
14252;DHT22;7210;51.502;10.722;2023-04-16T09:32:11;9.30;99.90
14252;DHT22;7210;51.502;10.722;2023-04-16T09:34:54;9.30;99.90
14252;DHT22;7210;51.502;10.722;2023-04-16T09:37:24;9.20;99.90
14252;DHT22;7210;51.502;10.722;2023-04-16T09:39:55;9.30;99.90
14252;DHT22;7210;51.502;10.722;2023-04-16T09:42:25;9.30;99.90
14252;DHT22;7210;51.502;10.722;2023-04-16T09:44:54;9.20;99.90
14252;DHT22;7210;51.502;10.722;2023-04-16T09:47:23;9.30;99.90
14252;DHT22;7210;51.502;10.722;2023-04-16T09:49:51;9.30;99.90
14252;DHT22;7210;51.502;10.722;2023-04-16T09:52:21;9.30;99.90
14252;DHT22;7210;51.502;10.722;2023-04-16T09:54:51;9.50;99.90
14252;DHT22;7210;51.502;10.722;2023-04-16T09:57:19;9.40;99.90
14252;DHT22;7210;51.502;10.722;2023-04-16T09:59:51;9.40;99.90
14252;DHT22;7210;51.502;10.722;2023-04-16T10:02:26;9.40;99.90
14252;DHT22;7210;51.502;10.722;2023-04-16T10:04:54;9.40;99.90
14252;DHT22;7210;51.502;10.722;2023-04-16T10:07:22;9.50;99.90
14252;DHT22;7210;51.502;10.722;2023-04-16T10:09:55;9.50;99.90
14252;DHT22;7210;51.502;10.722;2023-04-16T10:12:24;9.60;99.90
14252;DHT22;7210;51.502;10.722;2023-04-16T10:14:51;9.60;99.90
14252;DHT22;7210;51.502;10.722;2023-04-16T10:17:19;9.70;99.90
14252;DHT22;7210;51.502;10.722;2023-04-16T10:19:48;9.80;99.90
14252;DHT22;7210;51.502;10.722;2023-04-16T10:22:16;9.90;99.90
14252;DHT22;7210;51.502;10.722;2023-04-16T10:24:45;10.00;99.90
14252;DHT22;7210;51.502;10.722;2023-04-16T10:27:15;10.00;99.90
14252;DHT22;7210;51.502;10.722;2023-04-16T10:29:44;10.10;99.90
14252;DHT22;7210;51.502;10.722;2023-04-16T10:32:12;10.20;99.90
14252;DHT22;7210;51.502;10.722;2023-04-16T10:34:40;10.20;99.90
14252;DHT22;7210;51.502;10.722;2023-04-16T10:37:08;10.20;99.90
14252;DHT22;7210;51.502;10.722;2023-04-16T10:39:35;10.30;99.90
14252;DHT22;7210;51.502;10.722;2023-04-16T10:42:08;10.40;99.90
14252;DHT22;7210;51.502;10.722;2023-04-16T10:44:38;10.50;99.90
14252;DHT22;7210;51.502;10.722;2023-04-16T10:47:09;10.70;99.90
14252;DHT22;7210;51.502;10.722;2023-04-16T10:49:37;10.80;99.90
14252;DHT22;7210;51.502;10.722;2023-04-16T10:52:10;10.80;99.90
14252;DHT22;7210;51.502;10.722;2023-04-16T10:54:38;10.80;99.90
14252;DHT22;7210;51.502;10.722;2023-04-16T10:57:07;10.80;99.90
14252;DHT22;7210;51.502;10.722;2023-04-16T10:59:38;10.70;99.90
14252;DHT22;7210;51.502;10.722;2023-04-16T11:02:12;10.60;99.90
14252;DHT22;7210;51.502;10.722;2023-04-16T11:04:42;10.60;99.90
14252;DHT22;7210;51.502;10.722;2023-04-16T11:07:18;10.50;99.90
14252;DHT22;7210;51.502;10.722;2023-04-16T11:09:52;10.60;99.90
14252;DHT22;7210;51.502;10.722;2023-04-16T11:12:22;10.50;99.90
14252;DHT22;7210;51.502;10.722;2023-04-16T11:14:55;10.70;99.90
14252;DHT22;7210;51.502;10.722;2023-04-16T11:17:28;10.70;99.90
14252;DHT22;7210;51.502;10.722;2023-04-16T11:20:04;10.80;99.90
14252;DHT22;7210;51.502;10.722;2023-04-16T11:22:34;10.90;99.90
14252;DHT22;7210;51.502;10.722;2023-04-16T11:25:02;11.20;99.90
14252;DHT22;7210;51.502;10.722;2023-04-16T11:27:30;11.30;99.90
14252;DHT22;7210;51.502;10.722;2023-04-16T11:30:00;11.70;99.90
14252;DHT22;7210;51.502;10.722;2023-04-16T11:32:30;12.00;99.90
14252;DHT22;7210;51.502;10.722;2023-04-16T11:34:58;12.10;99.90
14252;DHT22;7210;51.502;10.722;2023-04-16T11:37:31;12.30;99.90
14252;DHT22;7210;51.502;10.722;2023-04-16T11:40:00;12.50;99.90
14252;DHT22;7210;51.502;10.722;2023-04-16T11:42:29;12.60;99.90
14252;DHT22;7210;51.502;10.722;2023-04-16T11:44:58;12.70;99.90
14252;DHT22;7210;51.502;10.722;2023-04-16T11:47:26;12.90;99.90
14252;DHT22;7210;51.502;10.722;2023-04-16T11:49:55;12.90;99.90
14252;DHT22;7210;51.502;10.722;2023-04-16T11:52:26;12.80;99.90
14252;DHT22;7210;51.502;10.722;2023-04-16T11:54:55;12.60;99.90
14252;DHT22;7210;51.502;10.722;2023-04-16T11:57:26;12.60;99.90
14252;DHT22;7210;51.502;10.722;2023-04-16T11:59:55;12.60;99.90
14252;DHT22;7210;51.502;10.722;2023-04-16T12:02:49;12.60;99.90
14252;DHT22;7210;51.502;10.722;2023-04-16T12:05:27;12.70;99.90
14252;DHT22;7210;51.502;10.722;2023-04-16T12:07:57;12.60;99.90
14252;DHT22;7210;51.502;10.722;2023-04-16T12:10:24;12.70;99.90
14252;DHT22;7210;51.502;10.722;2023-04-16T12:12:52;12.50;99.90
14252;DHT22;7210;51.502;10.722;2023-04-16T12:15:19;12.50;99.90
14252;DHT22;7210;51.502;10.722;2023-04-16T12:17:48;12.60;99.90
14252;DHT22;7210;51.502;10.722;2023-04-16T12:20:19;12.50;99.90
14252;DHT22;7210;51.502;10.722;2023-04-16T12:22:47;12.30;99.90
14252;DHT22;7210;51.502;10.722;2023-04-16T12:25:16;12.20;99.90
14252;DHT22;7210;51.502;10.722;2023-04-16T12:27:44;12.00;99.90
14252;DHT22;7210;51.502;10.722;2023-04-16T12:30:14;11.70;99.90
14252;DHT22;7210;51.502;10.722;2023-04-16T12:32:43;11.50;99.90
14252;DHT22;7210;51.502;10.722;2023-04-16T12:35:12;11.30;99.90
14252;DHT22;7210;51.502;10.722;2023-04-16T12:37:39;11.10;99.90
14252;DHT22;7210;51.502;10.722;2023-04-16T12:40:07;10.90;99.90
14252;DHT22;7210;51.502;10.722;2023-04-16T12:42:35;10.80;99.90
14252;DHT22;7210;51.502;10.722;2023-04-16T12:45:03;10.70;99.90
14252;DHT22;7210;51.502;10.722;2023-04-16T12:47:31;10.70;99.90
14252;DHT22;7210;51.502;10.722;2023-04-16T12:49:59;10.70;99.90
14252;DHT22;7210;51.502;10.722;2023-04-16T12:52:27;10.70;99.90
14252;DHT22;7210;51.502;10.722;2023-04-16T12:54:54;10.70;99.90
14252;DHT22;7210;51.502;10.722;2023-04-16T12:57:22;10.60;99.90
14252;DHT22;7210;51.502;10.722;2023-04-16T12:59:53;10.60;99.90
14252;DHT22;7210;51.502;10.722;2023-04-16T13:02:21;10.60;99.90
14252;DHT22;7210;51.502;10.722;2023-04-16T13:04:49;10.70;99.90
14252;DHT22;7210;51.502;10.722;2023-04-16T13:07:16;10.70;99.90
14252;DHT22;7210;51.502;10.722;2023-04-16T13:09:45;10.80;99.90
14252;DHT22;7210;51.502;10.722;2023-04-16T13:12:12;11.00;99.90
14252;DHT22;7210;51.502;10.722;2023-04-16T13:14:40;11.20;99.90
14252;DHT22;7210;51.502;10.722;2023-04-16T13:17:07;11.20;99.90
14252;DHT22;7210;51.502;10.722;2023-04-16T13:19:34;11.20;99.90
14252;DHT22;7210;51.502;10.722;2023-04-16T13:22:01;11.20;99.90
14252;DHT22;7210;51.502;10.722;2023-04-16T13:24:29;11.10;99.90
14252;DHT22;7210;51.502;10.722;2023-04-16T13:26:57;11.00;99.90
14252;DHT22;7210;51.502;10.722;2023-04-16T13:29:25;11.10;99.90
14252;DHT22;7210;51.502;10.722;2023-04-16T13:31:52;11.20;99.90
14252;DHT22;7210;51.502;10.722;2023-04-16T13:34:19;11.30;99.90
14252;DHT22;7210;51.502;10.722;2023-04-16T13:36:46;11.40;99.90
14252;DHT22;7210;51.502;10.722;2023-04-16T13:39:14;11.60;99.90
14252;DHT22;7210;51.502;10.722;2023-04-16T13:41:41;11.70;99.90
14252;DHT22;7210;51.502;10.722;2023-04-16T13:44:09;11.80;99.90
14252;DHT22;7210;51.502;10.722;2023-04-16T13:46:36;11.90;99.90
14252;DHT22;7210;51.502;10.722;2023-04-16T13:49:03;12.20;99.90
14252;DHT22;7210;51.502;10.722;2023-04-16T13:51:31;12.30;99.90
14252;DHT22;7210;51.502;10.722;2023-04-16T13:53:58;12.50;99.90
14252;DHT22;7210;51.502;10.722;2023-04-16T13:56:25;12.60;99.90
14252;DHT22;7210;51.502;10.722;2023-04-16T13:58:52;12.60;99.90
14252;DHT22;7210;51.502;10.722;2023-04-16T14:01:21;12.80;99.90
14252;DHT22;7210;51.502;10.722;2023-04-16T14:03:48;12.90;99.90
14252;DHT22;7210;51.502;10.722;2023-04-16T14:06:15;13.00;99.90
14252;DHT22;7210;51.502;10.722;2023-04-16T14:08:43;13.20;99.90
14252;DHT22;7210;51.502;10.722;2023-04-16T14:11:10;13.20;99.90
14252;DHT22;7210;51.502;10.722;2023-04-16T14:13:38;13.20;99.90
14252;DHT22;7210;51.502;10.722;2023-04-16T14:16:05;13.20;99.90
14252;DHT22;7210;51.502;10.722;2023-04-16T14:18:33;13.20;99.90
14252;DHT22;7210;51.502;10.722;2023-04-16T14:21:05;13.00;99.90
14252;DHT22;7210;51.502;10.722;2023-04-16T14:23:32;12.90;99.90
14252;DHT22;7210;51.502;10.722;2023-04-16T14:25:59;12.90;99.90
14252;DHT22;7210;51.502;10.722;2023-04-16T14:28:27;12.80;99.90
14252;DHT22;7210;51.502;10.722;2023-04-16T14:30:54;12.70;99.90
14252;DHT22;7210;51.502;10.722;2023-04-16T14:33:21;12.60;99.90
14252;DHT22;7210;51.502;10.722;2023-04-16T14:35:49;12.60;99.90
14252;DHT22;7210;51.502;10.722;2023-04-16T14:38:17;12.70;99.90
14252;DHT22;7210;51.502;10.722;2023-04-16T14:40:44;12.70;99.90
14252;DHT22;7210;51.502;10.722;2023-04-16T14:43:11;12.80;99.90
14252;DHT22;7210;51.502;10.722;2023-04-16T14:45:38;12.80;99.90
14252;DHT22;7210;51.502;10.722;2023-04-16T14:48:06;13.00;99.90
14252;DHT22;7210;51.502;10.722;2023-04-16T14:50:36;13.10;99.90
14252;DHT22;7210;51.502;10.722;2023-04-16T14:53:05;13.10;99.90
14252;DHT22;7210;51.502;10.722;2023-04-16T14:55:34;13.20;99.90
14252;DHT22;7210;51.502;10.722;2023-04-16T14:58:01;13.20;99.90
14252;DHT22;7210;51.502;10.722;2023-04-16T15:00:31;13.20;99.90
14252;DHT22;7210;51.502;10.722;2023-04-16T15:03:00;13.30;99.90
14252;DHT22;7210;51.502;10.722;2023-04-16T15:05:29;13.30;99.90
14252;DHT22;7210;51.502;10.722;2023-04-16T15:07:58;13.40;99.90
14252;DHT22;7210;51.502;10.722;2023-04-16T15:10:27;13.20;99.90
14252;DHT22;7210;51.502;10.722;2023-04-16T15:12:54;13.20;99.90
14252;DHT22;7210;51.502;10.722;2023-04-16T15:15:21;13.00;99.90
14252;DHT22;7210;51.502;10.722;2023-04-16T15:17:49;12.80;99.90
14252;DHT22;7210;51.502;10.722;2023-04-16T15:20:16;12.70;99.90
14252;DHT22;7210;51.502;10.722;2023-04-16T15:22:44;12.70;99.90
14252;DHT22;7210;51.502;10.722;2023-04-16T15:25:11;12.60;99.90
14252;DHT22;7210;51.502;10.722;2023-04-16T15:27:45;12.50;99.90
14252;DHT22;7210;51.502;10.722;2023-04-16T15:30:13;12.50;99.90
14252;DHT22;7210;51.502;10.722;2023-04-16T15:32:40;12.40;99.90
14252;DHT22;7210;51.502;10.722;2023-04-16T15:35:09;12.50;99.90
14252;DHT22;7210;51.502;10.722;2023-04-16T15:37:37;12.30;99.90
14252;DHT22;7210;51.502;10.722;2023-04-16T15:40:06;12.30;99.90
14252;DHT22;7210;51.502;10.722;2023-04-16T15:42:38;12.40;99.90
14252;DHT22;7210;51.502;10.722;2023-04-16T15:45:07;12.40;99.90
14252;DHT22;7210;51.502;10.722;2023-04-16T15:47:35;12.40;99.90
14252;DHT22;7210;51.502;10.722;2023-04-16T15:50:02;12.40;99.90
14252;DHT22;7210;51.502;10.722;2023-04-16T15:52:29;12.30;99.90
14252;DHT22;7210;51.502;10.722;2023-04-16T15:54:56;12.40;99.90